createdAt,value
2023-01-31T00:04:00.671Z,24.23
2023-01-31T00:09:05.080Z,24.90
2023-01-31T00:14:10.543Z,25.93
2023-01-31T00:19:12.860Z,26.20
2023-01-31T00:24:15.586Z,22.43
2023-01-31T00:29:17.778Z,22.23
2023-01-31T00:34:20.580Z,22.00
2023-01-31T00:39:22.882Z,19.90
2023-01-31T00:44:25.308Z,20.87
2023-01-31T00:49:27.781Z,20.97
2023-01-31T00:54:30.053Z,22.45
2023-01-31T00:59:32.303Z,21.57
2023-01-31T01:04:35.501Z,20.73
2023-01-31T01:09:37.770Z,20.17
2023-01-31T01:14:40.056Z,18.53
2023-01-31T01:19:42.313Z,21.60
2023-01-31T01:24:45.756Z,20.97
2023-01-31T01:29:47.974Z,19.57
2023-01-31T01:34:50.197Z,21.87
2023-01-31T01:39:53.171Z,18.63
2023-01-31T01:44:59.706Z,20.57
2023-01-31T02:00:31.082Z,20.20
2023-01-31T02:05:41.718Z,18.33
2023-01-31T02:16:03.483Z,19.08
2023-01-31T02:26:56.151Z,19.43
2023-01-31T02:32:22.850Z,17.30
2023-01-31T02:43:01.498Z,17.20
2023-01-31T02:48:33.628Z,17.93
2023-01-31T02:53:42.728Z,17.93
2023-01-31T02:59:07.531Z,18.83
2023-01-31T03:04:13.292Z,17.97
2023-01-31T03:09:36.864Z,20.63
2023-01-31T03:25:05.576Z,19.20
2023-01-31T03:30:13.835Z,18.57
2023-01-31T03:35:16.803Z,20.10
2023-01-31T03:40:27.737Z,20.03
2023-01-31T03:50:51.821Z,22.10
2023-01-31T04:01:08.266Z,24.03
2023-01-31T04:06:12.291Z,24.10
2023-01-31T04:11:16.302Z,24.67
2023-01-31T07:28:05.011Z,45.83
2023-01-31T07:33:07.378Z,46.60
2023-01-31T07:38:11.134Z,41.58
2023-01-31T09:34:23.045Z,22.13
2023-01-31T09:39:25.957Z,20.73
2023-01-31T09:44:42.515Z,22.05
2023-01-31T09:49:52.268Z,22.60
2023-01-31T09:54:55.190Z,20.10
2023-01-31T10:15:51.011Z,21.52
2023-01-31T10:21:04.231Z,19.67
2023-01-31T10:26:14.833Z,19.73
2023-01-31T10:36:43.012Z,21.15
2023-01-31T10:42:18.386Z,20.85
2023-01-31T10:47:33.650Z,19.52
2023-01-31T10:57:54.443Z,19.67
2023-01-31T11:02:58.757Z,22.23
2023-01-31T11:08:19.347Z,20.77
2023-01-31T11:13:22.634Z,19.67
2023-01-31T11:23:37.681Z,18.88
2023-01-31T11:28:41.589Z,17.42
2023-01-31T11:34:02.129Z,17.00
2023-01-31T11:44:36.590Z,19.05
2023-01-31T11:49:42.821Z,16.70
2023-01-31T11:54:50.419Z,17.80
2023-01-31T11:59:57.388Z,16.95
2023-01-31T12:05:00.818Z,19.92
2023-01-31T12:10:03.037Z,16.40
2023-01-31T12:15:15.644Z,17.67
2023-01-31T12:20:31.240Z,22.05
2023-01-31T12:31:13.554Z,18.95
2023-01-31T13:07:51.033Z,14.65
2023-01-31T13:12:54.582Z,14.93
2023-01-31T13:18:03.599Z,14.93
2023-01-31T16:53:41.649Z,13.63
2023-01-31T17:04:18.630Z,13.98
2023-01-31T17:09:22.495Z,13.38
2023-01-31T17:14:25.149Z,13.77
2023-01-31T17:19:27.489Z,13.85
2023-01-31T17:24:29.747Z,14.25
2023-01-31T17:29:31.936Z,16.10
2023-01-31T17:34:34.742Z,14.10
2023-01-31T17:39:37.182Z,13.02
2023-01-31T17:44:39.412Z,14.00
2023-01-31T17:49:41.634Z,14.30
2023-01-31T17:54:43.862Z,13.75
2023-01-31T17:59:46.079Z,15.43
2023-01-31T18:04:48.401Z,15.07
2023-01-31T18:09:51.062Z,15.10
2023-01-31T18:14:54.011Z,14.98
2023-01-31T18:19:56.369Z,15.50
2023-01-31T18:24:58.633Z,14.10
2023-01-31T18:30:00.822Z,19.15
2023-01-31T18:35:03.134Z,15.07
2023-01-31T18:40:05.946Z,15.32
2023-01-31T18:45:09.299Z,17.58
2023-01-31T18:50:11.733Z,18.23
2023-01-31T18:55:13.951Z,15.95
2023-01-31T19:00:16.649Z,16.60
2023-01-31T19:05:20.128Z,16.13
2023-01-31T19:10:22.605Z,21.25
2023-01-31T19:15:25.424Z,17.02
2023-01-31T19:20:27.977Z,14.60
2023-01-31T19:25:30.376Z,15.10
2023-01-31T19:30:33.259Z,15.30
2023-01-31T19:35:35.559Z,15.93
2023-01-31T19:40:38.237Z,17.42
2023-01-31T19:45:41.133Z,14.90
2023-01-31T19:50:43.441Z,15.35
2023-01-31T19:55:48.498Z,16.80
2023-01-31T20:00:53.070Z,17.60
2023-01-31T20:06:00.440Z,16.20
2023-01-31T20:11:03.601Z,15.40
2023-01-31T20:16:08.967Z,16.08
2023-01-31T20:21:15.905Z,16.65
2023-01-31T20:26:19.403Z,17.20
2023-01-31T20:31:22.736Z,16.95
2023-01-31T20:36:25.046Z,16.65
2023-01-31T20:41:27.353Z,16.67
2023-01-31T20:46:29.785Z,15.60
2023-01-31T20:51:32.115Z,15.07
2023-01-31T20:56:34.344Z,13.93
2023-01-31T21:01:36.981Z,14.07
2023-01-31T21:06:39.304Z,18.10
2023-01-31T21:11:41.569Z,21.02
2023-01-31T21:16:44.042Z,18.55
2023-01-31T21:21:46.255Z,17.50
2023-01-31T21:26:48.539Z,15.40
2023-01-31T21:31:50.922Z,21.48
2023-01-31T21:36:53.903Z,15.80
2023-01-31T21:42:16.014Z,14.63
2023-01-31T21:47:18.335Z,14.85
2023-01-31T21:52:20.664Z,14.25
2023-01-31T21:57:22.935Z,14.75
2023-01-31T22:02:25.173Z,13.80
2023-01-31T22:07:27.509Z,13.82
2023-01-31T22:12:30.095Z,13.00
2023-01-31T22:17:32.358Z,13.57
2023-01-31T22:22:34.619Z,12.93
2023-01-31T22:27:36.899Z,13.55
2023-01-31T22:32:39.082Z,13.25
2023-01-31T22:37:41.545Z,13.15
2023-01-31T22:42:43.760Z,13.07
2023-01-31T22:47:45.947Z,13.13
2023-01-31T22:52:48.675Z,13.02
2023-01-31T22:57:50.891Z,15.15
2023-01-31T23:02:53.052Z,14.82
2023-01-31T23:07:56.665Z,14.60
2023-01-31T23:12:58.957Z,14.32
2023-01-31T23:18:01.703Z,14.68
2023-01-31T23:23:03.905Z,14.10
2023-01-31T23:28:06.730Z,13.82
2023-01-31T23:33:08.897Z,14.70
2023-01-31T23:38:11.101Z,15.35
2023-01-31T23:43:13.287Z,14.70
2023-01-31T23:48:15.991Z,14.95
2023-01-31T23:53:18.231Z,14.32
2023-01-31T23:58:20.462Z,14.80
